Time;durP1;ratioP1;P1;durP2;ratioP2;P2;SDS_P1;SDS_P2;PMS_P1;PMS_P2;Temp;Humidity;BMP_temperature;BMP_pressure;BME280_temperature;BME280_humidity;BME280_pressure;Samples;Min_cycle;Max_cycle;Signal;HPM_P1;HPM_P2
2023/03/02 00:02:01;;;;;;;17.77;7.47;;;1.50;99.90;;;;;;8235971;28;20027;-78
2023/03/02 00:06:02;;;;;;;16.50;6.20;;;1.60;99.90;;;;;;8218543;28;20114;-80
2023/03/02 00:10:04;;;;;;;13.38;6.10;;;1.50;99.90;;;;;;8217254;28;20054;-79
2023/03/02 00:14:05;;;;;;;3.40;1.67;;;1.50;99.90;;;;;;8236509;28;20073;-80
2023/03/02 00:18:06;;;;;;;9.75;5.03;;;1.40;99.90;;;;;;8219481;28;20036;-81
2023/03/02 00:22:06;;;;;;;7.40;3.95;;;1.50;99.90;;;;;;8220425;28;20027;-80
2023/03/02 00:26:07;;;;;;;21.60;8.52;;;1.40;99.90;;;;;;8220239;28;20021;-80
2023/03/02 00:30:10;;;;;;;7.60;3.20;;;1.40;99.90;;;;;;8220390;28;20101;-80
2023/03/02 00:34:10;;;;;;;24.17;9.38;;;1.40;99.90;;;;;;8219927;28;20101;-80
2023/03/02 00:38:11;;;;;;;20.60;9.43;;;1.40;99.90;;;;;;8219233;28;20030;-80
2023/03/02 00:42:11;;;;;;;14.15;6.68;;;1.50;99.90;;;;;;8218152;28;20023;-80
2023/03/02 00:46:22;;;;;;;15.90;7.07;;;1.50;99.90;;;;;;8216660;28;20109;-80
2023/03/02 00:50:22;;;;;;;3.50;2.20;;;1.40;99.90;;;;;;8208604;28;20026;-80
2023/03/02 00:54:23;;;;;;;23.05;7.40;;;1.40;99.90;;;;;;8211055;28;20025;-80
2023/03/02 00:58:25;;;;;;;14.65;7.60;;;1.40;99.90;;;;;;8216347;28;20028;-80
2023/03/02 01:02:26;;;;;;;15.95;8.35;;;1.40;99.90;;;;;;8218979;28;20027;-81
2023/03/02 01:06:27;;;;;;;21.05;9.05;;;1.40;99.90;;;;;;8232935;28;20019;-80
2023/03/02 01:10:27;;;;;;;16.30;7.65;;;1.40;99.90;;;;;;8233872;28;20027;-80
2023/03/02 01:14:28;;;;;;;23.98;9.63;;;1.30;99.90;;;;;;8210014;28;20023;-80
2023/03/02 01:18:29;;;;;;;13.65;7.35;;;1.30;99.90;;;;;;8217125;28;20026;-80
2023/03/02 01:22:29;;;;;;;5.22;2.90;;;1.30;99.90;;;;;;8218144;28;20531;-80
2023/03/02 01:26:30;;;;;;;17.42;7.95;;;1.30;99.90;;;;;;8217591;28;20046;-81
2023/03/02 01:30:31;;;;;;;18.55;8.98;;;1.20;99.90;;;;;;8235163;28;20041;-80
2023/03/02 01:34:32;;;;;;;17.33;5.00;;;1.20;99.90;;;;;;8213436;28;20046;-80
2023/03/02 01:38:32;;;;;;;17.27;8.07;;;1.30;99.90;;;;;;8234451;28;20023;-80
2023/03/02 01:42:36;;;;;;;11.65;5.10;;;1.20;99.90;;;;;;8210915;28;20019;-80
2023/03/02 01:46:37;;;;;;;4.93;2.97;;;1.20;99.90;;;;;;8215228;28;20026;-80
2023/03/02 01:50:38;;;;;;;11.02;4.97;;;1.20;99.90;;;;;;8209660;28;20023;-80
2023/03/02 01:54:41;;;;;;;15.90;8.32;;;1.10;99.90;;;;;;8232225;28;20472;-79
2023/03/02 01:58:42;;;;;;;20.48;7.93;;;1.10;99.90;;;;;;8221283;28;20434;-80
2023/03/02 02:02:43;;;;;;;10.75;5.55;;;1.10;99.90;;;;;;8223886;28;20027;-80
2023/03/02 02:06:49;;;;;;;7.47;3.60;;;1.10;99.90;;;;;;8220642;28;20031;-80
2023/03/02 02:10:51;;;;;;;16.10;7.43;;;1.10;99.90;;;;;;8220166;28;20038;-80
2023/03/02 02:14:53;;;;;;;10.77;4.40;;;1.10;99.90;;;;;;8219122;28;20054;-80
2023/03/02 02:18:54;;;;;;;15.40;8.10;;;1.10;99.90;;;;;;8233331;28;20058;-79
2023/03/02 02:23:02;;;;;;;21.02;8.43;;;1.00;99.90;;;;;;8240896;28;20027;-81
2023/03/02 02:27:03;;;;;;;20.70;6.65;;;1.00;99.90;;;;;;8223986;28;20503;-80
2023/03/02 02:31:15;;;;;;;10.35;5.97;;;1.10;99.90;;;;;;8222255;28;20027;-79
2023/03/02 02:35:21;;;;;;;17.15;8.90;;;1.10;99.90;;;;;;8223319;28;20019;-80
2023/03/02 02:39:28;;;;;;;19.55;9.63;;;1.10;99.90;;;;;;8221881;28;20030;-80
2023/03/02 02:43:31;;;;;;;17.13;7.60;;;1.10;99.90;;;;;;8217038;28;20098;-80
2023/03/02 02:47:31;;;;;;;13.50;5.72;;;1.20;99.90;;;;;;8214022;28;20023;-80
2023/03/02 02:51:33;;;;;;;29.17;11.75;;;1.10;99.90;;;;;;8219431;28;20023;-80
2023/03/02 02:55:34;;;;;;;11.02;5.35;;;1.20;99.90;;;;;;8213351;28;20027;-80
2023/03/02 02:59:55;;;;;;;6.00;2.78;;;1.30;99.90;;;;;;8207950;28;20025;-79
2023/03/02 03:04:00;;;;;;;11.15;6.10;;;1.20;99.90;;;;;;8221922;28;20030;-80
2023/03/02 03:08:09;;;;;;;13.10;5.82;;;1.20;99.90;;;;;;8219625;28;20033;-80
2023/03/02 03:12:16;;;;;;;21.23;8.73;;;1.20;99.90;;;;;;8220349;28;20031;-80
2023/03/02 03:16:18;;;;;;;17.17;8.57;;;1.20;99.90;;;;;;8215170;28;20270;-80
2023/03/02 03:20:19;;;;;;;31.00;10.77;;;1.20;99.90;;;;;;8221242;28;20041;-79
2023/03/02 03:24:21;;;;;;;18.75;8.50;;;1.20;99.90;;;;;;8221124;28;20030;-80
2023/03/02 03:28:21;;;;;;;29.48;12.75;;;1.30;99.90;;;;;;8233864;28;20049;-80
2023/03/02 03:32:22;;;;;;;19.77;8.60;;;1.20;99.90;;;;;;8222129;28;20592;-80
2023/03/02 03:36:23;;;;;;;18.88;9.93;;;1.20;99.90;;;;;;8221154;28;20023;-79
2023/03/02 03:40:23;;;;;;;24.58;10.95;;;1.30;99.90;;;;;;8233913;28;20031;-80
2023/03/02 03:44:24;;;;;;;28.52;8.70;;;1.30;99.90;;;;;;8208995;28;20488;-80
2023/03/02 03:48:24;;;;;;;11.80;3.78;;;1.20;99.90;;;;;;8214389;28;20169;-79
2023/03/02 03:52:31;;;;;;;14.40;6.95;;;1.30;99.90;;;;;;8229733;28;20072;-79
2023/03/02 03:56:35;;;;;;;18.33;9.35;;;1.30;99.90;;;;;;8231911;28;20042;-80
2023/03/02 04:00:36;;;;;;;18.13;7.82;;;1.40;99.90;;;;;;8213612;28;20066;-80
2023/03/02 04:04:36;;;;;;;21.63;9.60;;;1.40;99.90;;;;;;8211230;28;20038;-79
2023/03/02 04:08:37;;;;;;;30.48;9.95;;;1.20;99.90;;;;;;8224784;28;20023;-79
2023/03/02 04:12:39;;;;;;;20.30;8.93;;;1.20;99.90;;;;;;8234191;28;20026;-80
2023/03/02 04:16:41;;;;;;;18.83;9.15;;;1.20;99.90;;;;;;8210551;28;20026;-80
2023/03/02 04:20:42;;;;;;;21.55;8.63;;;1.20;99.90;;;;;;8216180;28;20484;-79
2023/03/02 04:24:42;;;;;;;30.95;11.75;;;1.10;99.90;;;;;;8216268;28;20053;-80
2023/03/02 04:28:43;;;;;;;23.65;11.93;;;1.10;99.90;;;;;;8216837;28;20047;-78
2023/03/02 04:32:44;;;;;;;29.73;12.45;;;1.20;99.90;;;;;;8226379;28;20027;-80
2023/03/02 04:36:44;;;;;;;27.95;11.77;;;1.20;99.90;;;;;;8215461;28;20395;-80
2023/03/02 04:40:45;;;;;;;32.25;14.05;;;1.30;99.90;;;;;;8221420;28;20038;-79
2023/03/02 04:44:46;;;;;;;15.20;7.70;;;1.30;99.90;;;;;;8202685;28;20085;-79
2023/03/02 04:48:46;;;;;;;22.85;8.55;;;1.30;99.90;;;;;;8192039;28;20675;-80
2023/03/02 04:52:48;;;;;;;23.58;11.55;;;1.30;99.90;;;;;;8196136;28;20051;-79
2023/03/02 04:56:50;;;;;;;26.17;11.80;;;1.30;99.90;;;;;;8205574;28;20050;-80
2023/03/02 05:00:51;;;;;;;32.03;13.52;;;1.40;99.90;;;;;;8199190;28;20034;-80
2023/03/02 05:04:51;;;;;;;38.58;8.77;;;1.30;99.90;;;;;;8215134;28;20023;-80
2023/03/02 05:08:52;;;;;;;23.95;10.98;;;1.20;99.90;;;;;;8207704;28;20034;-79
2023/03/02 05:12:56;;;;;;;31.63;12.25;;;1.10;99.90;;;;;;8207407;28;20050;-79
2023/03/02 05:16:57;;;;;;;29.63;13.63;;;1.00;99.90;;;;;;8201855;28;20049;-80
2023/03/02 05:20:57;;;;;;;29.15;13.40;;;1.00;99.90;;;;;;8231970;28;20023;-79
2023/03/02 05:24:58;;;;;;;27.95;11.35;;;1.10;99.90;;;;;;8214113;28;20049;-80
2023/03/02 05:28:59;;;;;;;15.45;7.55;;;1.10;99.90;;;;;;8199192;28;20405;-80
2023/03/02 05:32:59;;;;;;;30.48;12.75;;;1.20;99.90;;;;;;8211493;28;20038;-81
2023/03/02 05:37:00;;;;;;;33.08;15.15;;;1.10;99.90;;;;;;8203059;28;20030;-80
2023/03/02 05:41:00;;;;;;;23.67;11.27;;;1.30;99.90;;;;;;8195039;28;20074;-80
2023/03/02 05:45:06;;;;;;;12.65;6.63;;;1.20;99.90;;;;;;8230748;28;20109;-79
2023/03/02 05:49:06;;;;;;;33.67;14.50;;;1.30;99.90;;;;;;8211969;28;21105;-80
2023/03/02 05:53:08;;;;;;;24.77;13.27;;;1.30;99.90;;;;;;8209851;28;20031;-81
2023/03/02 05:57:08;;;;;;;38.50;14.48;;;1.30;99.90;;;;;;8227966;28;20511;-81
2023/03/02 06:01:10;;;;;;;38.80;14.73;;;1.30;99.90;;;;;;8213299;28;20042;-80
2023/03/02 06:05:14;;;;;;;21.88;8.77;;;1.20;99.90;;;;;;8212706;28;20110;-79
2023/03/02 06:09:14;;;;;;;31.52;12.85;;;1.10;99.90;;;;;;8212093;28;20030;-80
2023/03/02 06:13:15;;;;;;;30.25;13.98;;;1.00;99.90;;;;;;8211711;28;20030;-80
2023/03/02 06:17:16;;;;;;;23.13;10.57;;;1.20;99.90;;;;;;8206427;28;20031;-81
2023/03/02 06:21:16;;;;;;;37.28;15.43;;;1.20;99.90;;;;;;8213389;28;20065;-80
2023/03/02 06:25:20;;;;;;;30.55;14.52;;;1.20;99.90;;;;;;8230055;28;20107;-80
2023/03/02 06:29:22;;;;;;;32.47;13.88;;;1.20;99.90;;;;;;8212047;28;20085;-81
2023/03/02 06:33:22;;;;;;;35.13;15.43;;;1.30;99.90;;;;;;8229441;28;20053;-81
2023/03/02 06:37:23;;;;;;;29.00;11.88;;;1.50;99.90;;;;;;8229855;28;20423;-79
2023/03/02 06:41:24;;;;;;;36.97;12.68;;;1.50;99.90;;;;;;8225866;28;20107;-80
2023/03/02 06:45:27;;;;;;;36.13;14.07;;;1.30;99.90;;;;;;8214044;28;20126;-81
2023/03/02 06:49:28;;;;;;;37.72;14.13;;;1.30;99.90;;;;;;8231531;28;20398;-81
2023/03/02 06:53:29;;;;;;;31.63;13.20;;;1.40;99.90;;;;;;8217412;28;20015;-81
2023/03/02 06:57:32;;;;;;;40.60;14.77;;;1.50;99.90;;;;;;8233923;28;20085;-78
2023/03/02 07:01:34;;;;;;;39.05;13.77;;;1.50;99.90;;;;;;8234914;28;20369;-80
2023/03/02 07:05:35;;;;;;;32.63;13.63;;;1.50;99.90;;;;;;8234381;28;20472;-80
2023/03/02 07:09:36;;;;;;;18.40;9.20;;;1.50;99.90;;;;;;8217602;28;20027;-79
2023/03/02 07:13:38;;;;;;;35.10;13.93;;;1.40;99.90;;;;;;8217790;28;20450;-80
2023/03/02 07:17:39;;;;;;;26.27;10.40;;;1.30;99.90;;;;;;8210494;28;20403;-80
2023/03/02 07:21:40;;;;;;;24.13;11.60;;;1.20;99.90;;;;;;8235028;28;20023;-80
2023/03/02 07:25:40;;;;;;;9.27;4.63;;;1.20;99.90;;;;;;8217751;28;20023;-81
2023/03/02 07:29:41;;;;;;;34.03;14.45;;;1.20;99.90;;;;;;8217721;28;20023;-80
2023/03/02 07:33:41;;;;;;;40.03;15.82;;;1.20;99.90;;;;;;8216922;28;20101;-79
2023/03/02 07:37:43;;;;;;;45.67;15.52;;;1.40;99.90;;;;;;8215494;28;20576;-80
2023/03/02 07:41:43;;;;;;;44.55;16.35;;;1.60;99.90;;;;;;8210171;28;20031;-79
2023/03/02 07:45:44;;;;;;;35.13;14.55;;;2.00;99.90;;;;;;8227335;28;20372;-78
2023/03/02 07:49:45;;;;;;;44.40;16.23;;;2.00;99.90;;;;;;8231589;28;20034;-80
2023/03/02 07:53:45;;;;;;;38.03;13.57;;;2.10;99.90;;;;;;8208487;28;20498;-81
2023/03/02 07:57:46;;;;;;;28.05;12.65;;;2.30;99.90;;;;;;8214741;28;20034;-81
2023/03/02 08:01:46;;;;;;;35.80;14.00;;;2.50;99.90;;;;;;8214194;28;20126;-81
2023/03/02 08:05:47;;;;;;;28.25;11.32;;;2.20;99.90;;;;;;8213112;28;20033;-80
2023/03/02 08:09:48;;;;;;;30.17;11.82;;;2.10;99.90;;;;;;8232537;28;20026;-80
2023/03/02 08:13:48;;;;;;;13.65;5.68;;;2.10;99.90;;;;;;8215652;28;20079;-80
2023/03/02 08:17:49;;;;;;;37.53;14.38;;;2.10;99.90;;;;;;8215272;28;20054;-79
2023/03/02 08:21:49;;;;;;;21.38;8.60;;;1.90;99.90;;;;;;8232426;28;20545;-80
2023/03/02 08:25:52;;;;;;;11.55;6.78;;;2.00;99.90;;;;;;8214756;28;20023;-80
2023/03/02 08:29:53;;;;;;;29.42;11.88;;;1.80;99.90;;;;;;8215088;28;20031;-80
2023/03/02 08:33:53;;;;;;;26.77;11.80;;;1.90;99.90;;;;;;8214837;28;20031;-80
2023/03/02 08:37:54;;;;;;;25.25;10.80;;;2.00;99.90;;;;;;8214578;28;20512;-80
2023/03/02 08:41:54;;;;;;;13.57;6.18;;;2.00;99.90;;;;;;8226166;28;20069;-80
2023/03/02 08:45:56;;;;;;;26.02;10.35;;;1.90;99.90;;;;;;8214403;28;20022;-79
2023/03/02 08:49:57;;;;;;;33.83;13.95;;;2.00;99.90;;;;;;8213580;28;20077;-80
2023/03/02 08:53:57;;;;;;;30.55;13.18;;;2.30;99.90;;;;;;8231436;28;20398;-79
2023/03/02 08:57:59;;;;;;;28.25;13.13;;;2.40;99.90;;;;;;8214182;28;20046;-80
2023/03/02 09:02:00;;;;;;;34.35;13.50;;;2.60;99.90;;;;;;8207834;28;20038;-81
2023/03/02 09:06:00;;;;;;;37.25;13.05;;;2.60;99.90;;;;;;8230499;28;20055;-80
2023/03/02 09:10:01;;;;;;;25.80;9.95;;;2.70;99.90;;;;;;8214456;28;20030;-80
2023/03/02 09:14:01;;;;;;;17.67;6.70;;;2.80;99.90;;;;;;8231541;28;20034;-79
2023/03/02 09:18:02;;;;;;;28.48;11.65;;;2.70;99.90;;;;;;8200318;28;20038;-79
2023/03/02 09:22:03;;;;;;;25.80;9.95;;;2.60;99.90;;;;;;8230502;28;20166;-80
2023/03/02 09:26:04;;;;;;;31.23;12.98;;;2.70;99.90;;;;;;8212579;28;20034;-80
2023/03/02 09:30:07;;;;;;;15.43;5.20;;;2.70;99.90;;;;;;8230632;28;20073;-80
2023/03/02 09:34:07;;;;;;;33.88;12.32;;;2.90;99.90;;;;;;8230797;28;20027;-80
2023/03/02 09:38:11;;;;;;;9.48;5.25;;;2.90;99.90;;;;;;8213689;28;20065;-80
2023/03/02 09:42:20;;;;;;;24.77;10.63;;;2.90;99.90;;;;;;8225905;28;20475;-80
2023/03/02 09:46:39;;;;;;;30.90;12.20;;;2.70;99.90;;;;;;8214258;28;20018;-81
2023/03/02 09:50:54;;;;;;;27.88;11.43;;;2.50;99.90;;;;;;8206321;28;20023;-80
2023/03/02 09:54:56;;;;;;;37.80;13.23;;;2.60;99.90;;;;;;8213436;28;20029;-80
2023/03/02 09:59:16;;;;;;;35.22;13.07;;;2.70;99.90;;;;;;8230738;28;20035;-80
2023/03/02 10:03:33;;;;;;;30.02;13.07;;;3.10;99.90;;;;;;8212940;28;20035;-81
2023/03/02 10:07:37;;;;;;;31.83;13.82;;;3.40;99.90;;;;;;8212150;28;20034;-81
2023/03/02 10:12:04;;;;;;;31.00;12.88;;;3.70;99.90;;;;;;8211114;28;20027;-81
2023/03/02 10:16:14;;;;;;;29.02;13.00;;;3.90;99.90;;;;;;8206818;28;20035;-81
2023/03/02 10:20:29;;;;;;;34.45;13.32;;;4.00;99.90;;;;;;8210671;28;20483;-80
2023/03/02 10:24:39;;;;;;;30.60;13.95;;;4.10;99.90;;;;;;8218380;28;20118;-80
2023/03/02 10:28:50;;;;;;;31.33;13.07;;;4.30;99.90;;;;;;8218221;28;20034;-81
2023/03/02 10:32:51;;;;;;;28.75;12.38;;;4.20;99.90;;;;;;8217287;28;20536;-80
2023/03/02 10:36:52;;;;;;;34.05;13.70;;;4.30;99.90;;;;;;8210709;28;20031;-80
2023/03/02 10:41:07;;;;;;;29.17;12.68;;;4.10;99.90;;;;;;8210693;28;20093;-80
2023/03/02 10:45:22;;;;;;;31.13;13.10;;;4.10;99.90;;;;;;8220864;28;20411;-79
2023/03/02 10:49:32;;;;;;;31.95;13.10;;;4.00;99.90;;;;;;8230063;28;20027;-80
2023/03/02 10:53:32;;;;;;;29.77;12.77;;;4.10;99.90;;;;;;8217498;28;20089;-81
2023/03/02 10:57:38;;;;;;;37.60;14.55;;;4.40;99.90;;;;;;8216552;28;20085;-80
2023/03/02 11:01:39;;;;;;;27.60;12.65;;;4.40;99.90;;;;;;8216284;28;20026;-80
2023/03/02 11:05:44;;;;;;;33.58;12.25;;;4.40;99.90;;;;;;8216443;28;20035;-80
2023/03/02 11:10:06;;;;;;;35.65;13.35;;;4.30;99.90;;;;;;8215260;28;20030;-81
2023/03/02 11:14:15;;;;;;;40.47;15.65;;;4.00;99.90;;;;;;8205566;28;20337;-80
2023/03/02 11:18:51;;;;;;;27.20;11.82;;;4.10;99.90;;;;;;8210221;28;20025;-80
2023/03/02 11:23:11;;;;;;;37.92;12.82;;;3.90;99.90;;;;;;8200458;28;20023;-81
2023/03/02 11:27:25;;;;;;;32.95;13.73;;;3.80;99.90;;;;;;8215137;28;20113;-80
2023/03/02 11:31:47;;;;;;;28.65;12.73;;;4.10;99.90;;;;;;8215354;28;20026;-80
2023/03/02 11:36:01;;;;;;;35.03;13.20;;;3.90;99.90;;;;;;8215924;28;20034;-79
2023/03/02 11:40:08;;;;;;;31.48;13.57;;;4.30;99.90;;;;;;8210333;28;20033;-81
2023/03/02 11:44:15;;;;;;;35.53;14.77;;;4.60;99.90;;;;;;8226824;28;20114;-81
2023/03/02 11:48:28;;;;;;;33.42;12.70;;;4.20;99.90;;;;;;8231126;28;20030;-81
2023/03/02 11:52:32;;;;;;;28.83;11.80;;;4.30;99.90;;;;;;8216143;28;20061;-81
2023/03/02 11:56:36;;;;;;;31.25;13.13;;;4.40;99.90;;;;;;8208448;28;20506;-81
2023/03/02 12:00:40;;;;;;;29.95;13.18;;;4.80;99.90;;;;;;8214535;28;20027;-79
2023/03/02 12:04:40;;;;;;;31.58;13.55;;;4.50;99.90;;;;;;8215413;28;20204;-80
2023/03/02 12:08:44;;;;;;;31.20;14.02;;;4.60;99.90;;;;;;8209021;28;20078;-80
2023/03/02 12:13:18;;;;;;;32.08;13.02;;;4.70;99.90;;;;;;8215531;28;20057;-81
2023/03/02 12:17:21;;;;;;;31.70;13.43;;;4.50;99.90;;;;;;8207795;28;20116;-80
2023/03/02 12:21:23;;;;;;;34.13;14.52;;;4.60;99.90;;;;;;8215233;28;20090;-79
2023/03/02 12:25:35;;;;;;;33.67;13.40;;;4.90;99.90;;;;;;8213594;28;20019;-81
2023/03/02 12:29:42;;;;;;;37.88;13.63;;;5.10;99.90;;;;;;8229370;28;20039;-81
2023/03/02 12:33:47;;;;;;;32.85;13.10;;;5.00;99.90;;;;;;8212555;28;20086;-81
2023/03/02 12:38:05;;;;;;;34.40;13.90;;;4.90;99.90;;;;;;8191941;28;20042;-81
2023/03/02 12:42:41;;;;;;;31.45;12.70;;;4.80;99.90;;;;;;8212701;28;20027;-81
2023/03/02 12:46:47;;;;;;;31.67;13.60;;;4.80;99.90;;;;;;8191511;28;20034;-81
2023/03/02 12:50:48;;;;;;;34.42;13.13;;;5.00;99.90;;;;;;8212112;28;20093;-81
2023/03/02 12:54:59;;;;;;;31.90;13.85;;;5.10;99.90;;;;;;8190307;28;20023;-80
2023/03/02 12:58:59;;;;;;;30.52;12.48;;;5.30;99.90;;;;;;8228200;28;20031;-81
2023/03/02 13:03:08;;;;;;;31.30;14.65;;;5.70;99.90;;;;;;8186223;28;20029;-81
2023/03/02 13:07:23;;;;;;;30.92;11.30;;;5.80;99.90;;;;;;8211844;28;20110;-81
2023/03/02 13:11:33;;;;;;;30.45;13.63;;;5.70;99.90;;;;;;8210728;28;20022;-79
2023/03/02 13:15:33;;;;;;;21.00;9.65;;;5.50;99.90;;;;;;8227374;28;20031;-79
2023/03/02 13:19:34;;;;;;;28.17;12.40;;;5.40;99.90;;;;;;8229450;28;20031;-80
2023/03/02 13:23:35;;;;;;;31.48;13.60;;;5.40;99.90;;;;;;8204863;28;20030;-81
2023/03/02 13:27:35;;;;;;;33.25;13.73;;;5.40;99.90;;;;;;8206240;28;20057;-81
2023/03/02 13:31:36;;;;;;;29.90;13.05;;;5.50;99.90;;;;;;8214824;28;20026;-81
2023/03/02 13:35:37;;;;;;;35.25;14.10;;;5.40;99.90;;;;;;8214103;28;20029;-81
2023/03/02 13:39:37;;;;;;;29.52;12.57;;;5.60;99.90;;;;;;8226932;28;20035;-80
2023/03/02 13:43:39;;;;;;;30.38;13.75;;;5.60;99.90;;;;;;8226978;28;20026;-81
2023/03/02 13:47:42;;;;;;;34.65;13.70;;;5.90;99.90;;;;;;8192571;28;20031;-80
2023/03/02 13:51:46;;;;;;;35.90;13.98;;;5.90;99.90;;;;;;8204179;28;20035;-81
2023/03/02 13:55:48;;;;;;;31.45;12.80;;;6.10;99.90;;;;;;8223401;28;20035;-81
2023/03/02 13:59:48;;;;;;;34.25;13.93;;;6.40;99.90;;;;;;8223182;28;20031;-81
2023/03/02 14:03:49;;;;;;;32.40;13.63;;;6.70;99.90;;;;;;8223094;28;20629;-81
2023/03/02 14:07:49;;;;;;;28.92;12.38;;;6.80;99.90;;;;;;8220821;28;20034;-81
2023/03/02 14:11:53;;;;;;;32.25;12.55;;;7.00;99.90;;;;;;8219258;28;20434;-81
2023/03/02 14:15:54;;;;;;;36.25;13.25;;;7.00;99.90;;;;;;8209534;28;20034;-79
2023/03/02 14:19:55;;;;;;;36.85;13.25;;;6.70;99.90;;;;;;8224058;28;20023;-81
2023/03/02 14:23:57;;;;;;;33.38;13.85;;;6.60;99.90;;;;;;8216774;28;20594;-81
2023/03/02 14:27:58;;;;;;;34.03;13.75;;;6.70;99.90;;;;;;8223625;28;20097;-81
2023/03/02 14:32:05;;;;;;;34.92;14.50;;;6.80;99.90;;;;;;8224052;28;20557;-81
2023/03/02 14:36:06;;;;;;;32.90;14.48;;;6.70;99.90;;;;;;8219411;28;20403;-81
2023/03/02 14:40:26;;;;;;;38.30;15.00;;;6.90;99.90;;;;;;8206077;28;20086;-79
2023/03/02 14:44:26;;;;;;;33.80;14.23;;;6.60;99.90;;;;;;8220767;28;20023;-80
2023/03/02 14:48:27;;;;;;;33.83;13.68;;;6.40;99.90;;;;;;8214863;28;20599;-81
2023/03/02 14:52:37;;;;;;;31.77;12.98;;;6.10;99.90;;;;;;8227031;28;20023;-83
2023/03/02 14:56:37;;;;;;;31.58;13.25;;;6.00;99.90;;;;;;8226689;28;20478;-83
2023/03/02 15:00:38;;;;;;;31.67;13.65;;;6.20;99.90;;;;;;8213650;28;20027;-84
2023/03/02 15:04:39;;;;;;;36.80;14.25;;;6.70;99.90;;;;;;8200491;28;20118;-83
2023/03/02 15:08:39;;;;;;;31.05;13.98;;;6.30;99.90;;;;;;8221840;28;20059;-83
2023/03/02 15:12:40;;;;;;;24.85;11.80;;;6.50;99.90;;;;;;8186391;28;20019;-84
2023/03/02 15:16:41;;;;;;;32.50;12.90;;;6.90;99.90;;;;;;8192274;28;20203;-83
2023/03/02 15:20:42;;;;;;;32.20;12.32;;;6.30;99.90;;;;;;8212694;28;20027;-83
2023/03/02 15:24:42;;;;;;;28.75;11.95;;;6.30;99.90;;;;;;8211296;28;20047;-84
2023/03/02 15:28:49;;;;;;;32.25;12.98;;;6.20;99.90;;;;;;8203852;28;20039;-83
2023/03/02 15:32:53;;;;;;;33.45;12.82;;;5.60;99.90;;;;;;8238013;28;20042;-83
2023/03/02 15:36:54;;;;;;;23.80;10.85;;;5.10;99.90;;;;;;8187953;28;20027;-83
2023/03/02 15:40:54;;;;;;;27.77;11.20;;;4.90;99.90;;;;;;8194560;28;20041;-84
2023/03/02 15:44:55;;;;;;;29.58;12.77;;;4.60;99.90;;;;;;8197639;28;20019;-83
2023/03/02 15:48:55;;;;;;;31.05;13.00;;;4.50;99.90;;;;;;8202106;28;20023;-83
2023/03/02 15:52:57;;;;;;;29.77;11.35;;;4.30;99.90;;;;;;8214401;28;20027;-83
2023/03/02 15:56:57;;;;;;;22.45;9.57;;;4.20;99.90;;;;;;8209211;28;20140;-82
2023/03/02 16:00:58;;;;;;;20.92;10.07;;;4.10;99.90;;;;;;8197186;28;20369;-83
2023/03/02 16:04:58;;;;;;;21.88;10.23;;;4.10;99.90;;;;;;8211932;28;20011;-83
2023/03/02 16:08:59;;;;;;;32.42;13.43;;;3.90;99.90;;;;;;8216233;28;20027;-83
2023/03/02 16:13:04;;;;;;;32.65;12.95;;;3.70;99.90;;;;;;8210416;28;20526;-83
2023/03/02 16:17:05;;;;;;;30.10;11.55;;;3.50;99.90;;;;;;8209797;28;20031;-83
2023/03/02 16:21:10;;;;;;;36.42;12.95;;;3.30;99.90;;;;;;8211331;28;20039;-83
2023/03/02 16:25:11;;;;;;;28.10;9.65;;;3.20;99.90;;;;;;8214948;28;20503;-84
2023/03/02 16:29:12;;;;;;;36.25;13.88;;;3.10;99.90;;;;;;8215028;28;20038;-83
2023/03/02 16:33:15;;;;;;;29.90;12.98;;;2.90;99.90;;;;;;8218138;28;20498;-83
2023/03/02 16:37:16;;;;;;;31.63;11.93;;;2.80;99.90;;;;;;8236042;28;20069;-83
2023/03/02 16:41:21;;;;;;;31.17;12.88;;;2.70;99.90;;;;;;8222252;28;20106;-83
2023/03/02 16:45:22;;;;;;;28.40;11.27;;;2.40;99.90;;;;;;8215068;28;20027;-83
2023/03/02 16:49:22;;;;;;;31.35;12.48;;;2.20;99.90;;;;;;8198892;28;20626;-84
2023/03/02 16:53:23;;;;;;;27.80;11.48;;;2.00;99.90;;;;;;8213328;28;20023;-84
2023/03/02 16:57:24;;;;;;;29.55;11.57;;;2.00;99.90;;;;;;8216643;28;20026;-84
2023/03/02 17:01:24;;;;;;;34.00;12.80;;;1.60;99.90;;;;;;8217989;28;20011;-84
2023/03/02 17:05:25;;;;;;;24.40;11.15;;;1.40;99.90;;;;;;8215844;28;20057;-84
2023/03/02 17:09:25;;;;;;;32.03;12.07;;;1.20;99.90;;;;;;8214461;28;20132;-83
2023/03/02 17:13:26;;;;;;;29.15;10.88;;;1.00;99.90;;;;;;8215105;28;20031;-84
2023/03/02 17:17:27;;;;;;;29.45;11.52;;;0.60;99.90;;;;;;8200510;28;20041;-83
2023/03/02 17:21:27;;;;;;;28.80;11.20;;;0.50;99.90;;;;;;8217076;28;20029;-83
2023/03/02 17:25:28;;;;;;;29.60;11.43;;;0.50;99.90;;;;;;8229192;28;20023;-84
2023/03/02 17:29:29;;;;;;;31.42;11.10;;;0.20;99.90;;;;;;8216343;28;20031;-83
2023/03/02 17:33:29;;;;;;;32.10;12.10;;;-0.10;99.90;;;;;;8217421;28;20484;-83
2023/03/02 17:37:30;;;;;;;32.45;12.10;;;-0.10;99.90;;;;;;8216972;28;20034;-83
2023/03/02 17:41:32;;;;;;;32.45;12.88;;;-0.30;99.90;;;;;;8197781;28;20578;-80
2023/03/02 17:45:33;;;;;;;38.85;12.77;;;-0.40;99.90;;;;;;8183947;28;20027;-80
2023/03/02 17:49:38;;;;;;;32.63;11.75;;;-0.50;99.90;;;;;;8180912;28;20031;-80
2023/03/02 17:53:40;;;;;;;33.75;11.80;;;-0.70;99.90;;;;;;8179944;28;20159;-79
2023/03/02 17:57:40;;;;;;;41.13;12.73;;;-0.80;99.90;;;;;;8165795;28;20038;-80
2023/03/02 18:01:42;;;;;;;28.77;11.27;;;-1.00;99.90;;;;;;8166501;28;20034;-81
2023/03/02 18:05:43;;;;;;;37.03;14.13;;;-1.10;99.90;;;;;;8168807;28;20384;-80
2023/03/02 18:09:44;;;;;;;35.15;12.98;;;-1.10;99.90;;;;;;8201649;28;20059;-80
2023/03/02 18:13:45;;;;;;;39.97;14.45;;;-1.20;99.90;;;;;;8195232;28;20053;-81
2023/03/02 18:17:51;;;;;;;38.05;13.50;;;-1.20;99.90;;;;;;8197562;28;20042;-82
2023/03/02 18:21:51;;;;;;;48.95;16.88;;;-1.20;99.90;;;;;;8204844;28;20161;-82
2023/03/02 18:25:52;;;;;;;38.28;13.88;;;-1.10;99.90;;;;;;8206517;28;20316;-81
2023/03/02 18:29:52;;;;;;;40.45;12.90;;;-1.20;99.90;;;;;;8191682;28;20070;-81
2023/03/02 18:33:53;;;;;;;36.17;13.77;;;-1.10;99.90;;;;;;8213260;28;20042;-81
2023/03/02 18:37:54;;;;;;;35.90;12.43;;;-1.30;99.90;;;;;;8199144;28;20606;-81
2023/03/02 18:41:54;;;;;;;29.70;11.93;;;-1.30;99.90;;;;;;8198861;28;20102;-81
2023/03/02 18:45:56;;;;;;;30.25;12.05;;;-1.10;99.90;;;;;;8204545;28;20027;-82
2023/03/02 18:49:57;;;;;;;30.08;11.38;;;-1.30;99.90;;;;;;8192916;28;20126;-82
2023/03/02 18:53:58;;;;;;;32.97;12.15;;;-1.30;99.90;;;;;;8224317;28;20062;-82
2023/03/02 18:57:58;;;;;;;31.45;12.73;;;-1.10;99.90;;;;;;8199388;28;20522;-80
2023/03/02 19:01:59;;;;;;;32.15;10.88;;;-1.40;99.90;;;;;;8201952;28;20027;-81
2023/03/02 19:06:00;;;;;;;32.60;12.90;;;-1.20;99.90;;;;;;8201296;28;20491;-79
2023/03/02 19:10:00;;;;;;;26.65;10.85;;;-1.50;99.90;;;;;;8196529;28;20031;-81
2023/03/02 19:14:01;;;;;;;29.67;12.00;;;-1.80;99.90;;;;;;8200317;28;20043;-83
2023/03/02 19:18:02;;;;;;;26.83;11.20;;;-1.80;99.90;;;;;;8204757;28;20023;-81
2023/03/02 19:22:05;;;;;;;40.80;17.30;;;-1.80;99.90;;;;;;8186099;28;20503;-80
2023/03/02 19:26:06;;;;;;;36.20;13.57;;;-1.50;99.90;;;;;;8179163;28;20024;-81
2023/03/02 19:30:11;;;;;;;36.33;14.90;;;-1.50;99.90;;;;;;8178557;28;20044;-79
2023/03/02 19:34:11;;;;;;;38.35;15.40;;;-1.50;99.90;;;;;;8189719;28;20491;-80
2023/03/02 19:38:12;;;;;;;40.75;16.00;;;-1.10;99.90;;;;;;8198574;28;20121;-83
2023/03/02 19:42:12;;;;;;;40.35;14.13;;;-1.20;99.90;;;;;;8226653;28;20043;-82
2023/03/02 19:46:14;;;;;;;38.40;15.80;;;-1.00;99.90;;;;;;8199763;28;20094;-82
2023/03/02 19:50:18;;;;;;;30.67;13.63;;;-1.10;99.90;;;;;;8193775;28;20049;-81
2023/03/02 19:54:18;;;;;;;43.08;15.15;;;-1.20;99.90;;;;;;8199194;28;21760;-80
2023/03/02 19:58:20;;;;;;;43.60;13.73;;;-1.00;99.90;;;;;;8196022;28;20038;-81
2023/03/02 20:02:21;;;;;;;40.63;14.77;;;-0.90;99.90;;;;;;8197547;28;20394;-81
2023/03/02 20:06:24;;;;;;;35.63;15.30;;;-0.90;99.90;;;;;;8193899;28;20074;-80
2023/03/02 20:10:30;;;;;;;39.63;14.88;;;-0.90;99.90;;;;;;8177441;28;20093;-82
2023/03/02 20:14:33;;;;;;;33.63;14.25;;;-0.50;99.90;;;;;;8206327;28;20057;-82
2023/03/02 20:18:34;;;;;;;36.50;14.48;;;-0.60;99.90;;;;;;8208925;28;20022;-79
2023/03/02 20:22:35;;;;;;;38.97;16.02;;;-0.50;99.90;;;;;;8204123;28;20031;-81
2023/03/02 20:26:36;;;;;;;41.33;15.40;;;-0.60;99.90;;;;;;8200459;28;20073;-82
2023/03/02 20:30:44;;;;;;;34.47;13.88;;;-0.60;99.90;;;;;;8200068;28;20038;-82
2023/03/02 20:34:45;;;;;;;32.58;12.48;;;-0.60;99.90;;;;;;8186690;28;20027;-82
2023/03/02 20:38:51;;;;;;;33.35;13.30;;;-0.80;99.90;;;;;;8209465;28;20035;-81
2023/03/02 20:42:52;;;;;;;34.92;13.00;;;-1.00;99.90;;;;;;8225988;28;20484;-80
2023/03/02 20:46:57;;;;;;;43.15;15.05;;;-0.90;99.90;;;;;;8211340;28;20026;-81
2023/03/02 20:50:58;;;;;;;31.08;13.65;;;-0.90;99.90;;;;;;8211186;28;20035;-80